createdAt,value
2018-07-01T00:02:15.880Z,40.90
2018-07-01T00:04:43.998Z,41.00
2018-07-01T00:07:12.105Z,41.20
2018-07-01T00:09:40.233Z,40.80
2018-07-01T00:12:08.479Z,40.70
2018-07-01T00:14:36.613Z,41.20
2018-07-01T00:17:04.881Z,41.00
2018-07-01T00:19:33.013Z,41.00
2018-07-01T00:22:01.131Z,41.10
2018-07-01T00:24:29.362Z,41.40
2018-07-01T00:26:57.500Z,41.00
2018-07-01T00:29:25.643Z,41.30
2018-07-01T00:31:53.792Z,41.40
2018-07-01T00:34:21.935Z,41.40
2018-07-01T00:36:50.075Z,41.30
2018-07-01T00:39:18.170Z,40.80
2018-07-01T00:41:46.292Z,41.40
2018-07-01T00:44:14.396Z,41.20
2018-07-01T00:46:42.514Z,41.10
2018-07-01T00:49:10.660Z,42.10
2018-07-01T00:51:38.763Z,41.50
2018-07-01T00:56:35.201Z,41.20
2018-07-01T00:59:03.761Z,41.70
2018-07-01T01:01:32.152Z,41.80
2018-07-01T01:04:00.304Z,41.90
2018-07-01T01:06:28.552Z,41.90
2018-07-01T01:08:56.726Z,41.90
2018-07-01T01:11:24.844Z,42.00
2018-07-01T01:13:53.249Z,42.30
2018-07-01T01:16:21.365Z,42.30
2018-07-01T01:18:49.493Z,42.80
2018-07-01T01:21:17.593Z,42.40
2018-07-01T01:23:45.710Z,42.20
2018-07-01T01:26:13.841Z,42.40
2018-07-01T01:28:41.953Z,42.40
2018-07-01T01:33:37.946Z,41.30
2018-07-01T01:38:35.968Z,42.60
2018-07-01T01:41:08.976Z,42.60
2018-07-01T01:43:40.866Z,43.00
2018-07-01T01:46:30.544Z,42.80
2018-07-01T01:49:02.573Z,42.60
2018-07-01T01:52:38.965Z,42.90
2018-07-01T01:55:11.589Z,42.80
2018-07-01T01:57:43.563Z,43.00
2018-07-01T02:00:17.093Z,42.90
2018-07-01T02:02:50.006Z,43.30
2018-07-01T02:05:21.744Z,43.20
2018-07-01T02:07:56.245Z,43.70
2018-07-01T02:10:24.388Z,43.50
2018-07-01T02:12:52.540Z,43.70
2018-07-01T02:15:25.193Z,43.60
2018-07-01T02:17:54.358Z,43.60
2018-07-01T02:20:24.820Z,43.80
2018-07-01T02:23:04.596Z,43.50
2018-07-01T02:25:34.016Z,43.80
2018-07-01T02:28:02.137Z,43.90
2018-07-01T02:30:30.276Z,43.70
2018-07-01T02:32:58.400Z,43.70
2018-07-01T02:35:26.589Z,43.80
2018-07-01T02:37:54.709Z,43.70
2018-07-01T02:40:22.836Z,44.00
2018-07-01T02:42:50.965Z,43.70
2018-07-01T02:45:19.068Z,43.80
2018-07-01T02:47:47.190Z,44.10
2018-07-01T02:50:15.298Z,44.20
2018-07-01T02:52:43.391Z,44.00
2018-07-01T02:55:11.523Z,44.20
2018-07-01T02:57:39.618Z,44.40
2018-07-01T03:00:07.717Z,44.50
2018-07-01T03:02:35.838Z,44.50
2018-07-01T03:05:04.313Z,44.40
2018-07-01T03:10:00.351Z,44.60
2018-07-01T03:12:28.449Z,44.60
2018-07-01T03:14:56.555Z,44.90
2018-07-01T03:17:24.662Z,45.00
2018-07-01T03:19:52.794Z,45.00
2018-07-01T03:22:20.921Z,44.90
2018-07-01T03:24:49.033Z,44.80
2018-07-01T03:27:17.080Z,45.00
2018-07-01T03:29:45.189Z,45.00
2018-07-01T03:32:13.309Z,45.10
2018-07-01T03:34:41.408Z,45.00
2018-07-01T03:37:09.504Z,44.80
2018-07-01T03:39:37.602Z,44.90
2018-07-01T03:42:05.849Z,45.00
2018-07-01T03:44:33.943Z,45.20
2018-07-01T03:47:02.052Z,45.30
2018-07-01T03:56:53.842Z,46.00
2018-07-01T03:59:21.956Z,46.10
2018-07-01T04:01:50.057Z,46.00
2018-07-01T04:04:18.152Z,46.10
2018-07-01T04:06:46.235Z,46.10
2018-07-01T04:11:42.472Z,45.70
2018-07-01T04:14:10.608Z,46.20
2018-07-01T04:16:39.188Z,46.20
2018-07-01T04:19:07.284Z,46.20
2018-07-01T04:21:35.378Z,46.20
2018-07-01T04:24:03.496Z,46.50
2018-07-01T04:26:31.675Z,46.30
2018-07-01T04:28:59.792Z,46.30
2018-07-01T04:31:28.092Z,46.00
2018-07-01T04:33:56.197Z,46.20
2018-07-01T04:36:24.313Z,46.50
2018-07-01T04:38:52.411Z,46.30
2018-07-01T04:41:20.504Z,46.40
2018-07-01T04:43:48.611Z,46.20
2018-07-01T04:48:44.598Z,46.70
2018-07-01T04:51:12.695Z,46.30
2018-07-01T04:53:40.835Z,46.60
2018-07-01T04:56:08.944Z,46.90
2018-07-01T04:58:37.063Z,46.90
2018-07-01T05:01:05.152Z,46.70
2018-07-01T05:03:33.275Z,46.40
2018-07-01T05:06:01.392Z,46.20
2018-07-01T05:08:29.503Z,46.80
2018-07-01T05:10:57.621Z,46.80
2018-07-01T05:13:25.728Z,46.90
2018-07-01T05:15:53.838Z,46.90
2018-07-01T05:18:21.929Z,46.70
2018-07-01T05:20:50.021Z,46.80
2018-07-01T05:23:18.127Z,46.60
2018-07-01T05:25:46.240Z,46.70
2018-07-01T05:28:14.355Z,46.70
2018-07-01T05:30:42.612Z,46.60
2018-07-01T05:33:10.714Z,46.50
2018-07-01T05:35:38.805Z,46.60
2018-07-01T05:38:06.931Z,46.20
2018-07-01T05:40:35.047Z,46.50
2018-07-01T05:43:03.184Z,46.20
2018-07-01T05:45:31.256Z,46.30
2018-07-01T05:47:59.375Z,46.40
2018-07-01T05:50:27.475Z,46.50
2018-07-01T05:52:55.606Z,46.50
2018-07-01T05:55:23.745Z,46.20
2018-07-01T05:57:51.839Z,46.10
2018-07-01T06:00:19.940Z,46.30
2018-07-01T06:02:48.025Z,46.60
2018-07-01T06:05:16.131Z,46.50
2018-07-01T06:07:44.234Z,46.80
2018-07-01T06:10:12.332Z,46.50
2018-07-01T06:12:40.411Z,46.40
2018-07-01T06:15:08.523Z,46.40
2018-07-01T06:17:36.618Z,46.40
2018-07-01T06:20:04.719Z,46.50
2018-07-01T06:22:32.803Z,45.90
2018-07-01T06:25:00.899Z,45.80
2018-07-01T06:27:28.988Z,46.20
2018-07-01T06:29:57.057Z,45.50
2018-07-01T06:32:25.231Z,45.30
2018-07-01T06:34:53.319Z,45.10
2018-07-01T06:37:21.447Z,44.70
2018-07-01T06:39:49.593Z,44.10
2018-07-01T06:42:17.700Z,44.70
2018-07-01T06:44:45.823Z,43.10
2018-07-01T06:47:13.928Z,43.70
2018-07-01T06:49:42.039Z,43.50
2018-07-01T06:52:10.179Z,44.00
2018-07-01T06:54:38.426Z,42.60
2018-07-01T06:57:06.508Z,42.00
2018-07-01T06:59:34.587Z,42.80
2018-07-01T07:02:02.674Z,42.80
2018-07-01T07:04:30.783Z,42.90
2018-07-01T07:06:58.899Z,42.50
2018-07-01T07:09:26.972Z,42.60
2018-07-01T07:11:55.067Z,42.20
2018-07-01T07:14:23.156Z,41.50
2018-07-01T07:16:51.283Z,42.20
2018-07-01T07:19:19.387Z,41.10
2018-07-01T07:21:47.456Z,42.70
2018-07-01T07:24:15.557Z,40.40
2018-07-01T07:26:43.652Z,40.40
2018-07-01T07:29:11.783Z,41.50
2018-07-01T07:31:39.898Z,39.30
2018-07-01T07:34:08.004Z,41.70
2018-07-01T07:36:36.111Z,40.20
2018-07-01T07:39:06.971Z,40.80
2018-07-01T07:44:03.397Z,39.30
2018-07-01T07:46:31.503Z,38.70
2018-07-01T07:48:59.661Z,39.40
2018-07-01T07:51:34.483Z,40.30
2018-07-01T07:54:02.590Z,38.90
2018-07-01T07:56:30.679Z,39.20
2018-07-01T07:58:58.787Z,39.30
2018-07-01T08:01:26.932Z,37.30
2018-07-01T08:03:55.038Z,37.20
2018-07-01T08:06:23.144Z,37.40
2018-07-01T08:08:51.236Z,36.30
2018-07-01T08:11:19.353Z,35.50
2018-07-01T08:13:47.467Z,36.30
2018-07-01T08:16:15.620Z,36.20
2018-07-01T08:18:43.704Z,35.70
2018-07-01T08:21:12.051Z,36.20
2018-07-01T08:23:40.173Z,36.60
2018-07-01T08:26:08.280Z,36.60
2018-07-01T08:28:36.403Z,35.80
2018-07-01T08:31:04.579Z,35.40
2018-07-01T08:33:32.684Z,36.30
2018-07-01T08:36:00.798Z,34.90
2018-07-01T08:38:28.920Z,34.70
2018-07-01T08:40:57.007Z,34.30
2018-07-01T08:43:25.083Z,32.60
2018-07-01T08:45:53.195Z,32.60
2018-07-01T08:48:21.239Z,32.80
2018-07-01T08:50:49.352Z,33.00
2018-07-01T08:53:17.424Z,32.40
2018-07-01T08:55:45.528Z,32.10
2018-07-01T08:58:13.730Z,33.40
2018-07-01T09:00:41.847Z,32.00
2018-07-01T09:05:37.979Z,30.00
2018-07-01T09:08:06.328Z,30.00
2018-07-01T09:10:34.451Z,29.80
2018-07-01T09:13:02.533Z,29.90
2018-07-01T09:15:30.620Z,28.90
2018-07-01T09:17:58.719Z,30.60
2018-07-01T09:20:26.821Z,31.00
2018-07-01T09:22:54.906Z,30.30
2018-07-01T09:25:23.012Z,30.60
2018-07-01T09:27:51.140Z,30.00
2018-07-01T09:30:19.230Z,30.10
2018-07-01T09:32:47.329Z,30.70
2018-07-01T09:35:15.439Z,30.00
2018-07-01T09:37:43.537Z,30.20
2018-07-01T09:40:11.650Z,29.30
2018-07-01T09:42:39.776Z,27.50
2018-07-01T09:45:07.867Z,29.40
2018-07-01T09:47:36.070Z,29.40
2018-07-01T09:50:04.580Z,28.50
2018-07-01T09:52:32.665Z,28.40
2018-07-01T09:55:00.831Z,29.00
2018-07-01T09:57:28.903Z,28.50
2018-07-01T10:02:24.856Z,27.40
2018-07-01T10:04:52.976Z,28.50
2018-07-01T10:07:21.074Z,27.80
2018-07-01T10:09:49.178Z,28.00
2018-07-01T10:12:17.262Z,28.20
2018-07-01T10:14:45.363Z,28.70
2018-07-01T10:17:13.479Z,29.10
2018-07-01T10:19:41.604Z,27.90
2018-07-01T10:22:10.040Z,27.00
2018-07-01T10:24:38.117Z,26.40
2018-07-01T10:27:06.695Z,26.60
2018-07-01T10:29:34.783Z,26.50
2018-07-01T10:32:02.932Z,25.90
2018-07-01T10:34:31.122Z,25.60
2018-07-01T10:36:59.227Z,26.50
2018-07-01T10:39:27.331Z,26.70
2018-07-01T10:41:55.475Z,26.30
2018-07-01T10:44:23.576Z,26.80
2018-07-01T10:46:51.699Z,26.70
2018-07-01T10:49:19.819Z,26.90
2018-07-01T10:51:48.001Z,25.50
2018-07-01T10:54:16.045Z,24.90
2018-07-01T10:56:44.164Z,25.90
2018-07-01T10:59:12.216Z,24.80
2018-07-01T11:01:40.332Z,25.20
2018-07-01T11:04:08.450Z,24.50
2018-07-01T11:06:36.552Z,25.40
2018-07-01T11:09:08.435Z,25.60
2018-07-01T11:14:04.432Z,26.00
2018-07-01T11:19:07.037Z,24.90
2018-07-01T11:21:35.164Z,24.30
2018-07-01T11:24:03.276Z,24.20
2018-07-01T11:26:31.428Z,24.70
2018-07-01T11:28:59.473Z,24.60
2018-07-01T11:31:27.587Z,24.50
2018-07-01T11:33:55.671Z,25.10
2018-07-01T11:36:23.816Z,24.80
2018-07-01T11:38:51.912Z,24.70
2018-07-01T11:41:20.093Z,24.10
2018-07-01T11:43:48.188Z,24.30
2018-07-01T11:46:16.306Z,24.40
2018-07-01T11:48:44.390Z,25.20
2018-07-01T11:51:12.471Z,24.60
2018-07-01T11:53:40.580Z,25.30
2018-07-01T11:56:08.682Z,25.90
2018-07-01T11:58:36.774Z,24.70
2018-07-01T12:01:04.868Z,24.70
2018-07-01T12:03:32.976Z,24.40
2018-07-01T12:06:01.096Z,25.10
2018-07-01T12:08:29.168Z,25.10
2018-07-01T12:10:57.304Z,25.40
2018-07-01T12:13:25.385Z,25.00
2018-07-01T12:15:53.471Z,24.90
2018-07-01T12:18:21.560Z,25.40
2018-07-01T12:20:49.709Z,25.00
2018-07-01T12:23:17.793Z,25.00
2018-07-01T12:25:45.887Z,25.00
2018-07-01T12:28:13.967Z,24.40
2018-07-01T12:30:42.059Z,24.60
2018-07-01T12:33:10.129Z,24.20
2018-07-01T12:35:38.228Z,24.70
2018-07-01T12:38:06.351Z,25.00
2018-07-01T12:40:34.443Z,24.90
2018-07-01T12:43:02.584Z,25.10
2018-07-01T12:45:30.684Z,24.20
2018-07-01T12:47:58.787Z,24.20
2018-07-01T12:50:26.891Z,24.60
2018-07-01T12:52:55.109Z,24.60
2018-07-01T12:55:23.229Z,24.60
2018-07-01T12:57:51.315Z,24.40
2018-07-01T13:00:19.424Z,24.10
2018-07-01T13:02:47.524Z,23.80
2018-07-01T13:05:15.586Z,24.20
2018-07-01T13:07:43.671Z,23.90
2018-07-01T13:10:11.776Z,23.50
2018-07-01T13:12:39.864Z,24.20
2018-07-01T13:15:07.955Z,24.00
2018-07-01T13:17:36.080Z,24.10
2018-07-01T13:20:04.296Z,23.60
2018-07-01T13:22:32.411Z,23.10
2018-07-01T13:25:00.710Z,23.50
2018-07-01T13:29:56.835Z,24.50
2018-07-01T13:32:24.919Z,24.80
2018-07-01T13:37:20.903Z,24.00
2018-07-01T13:39:48.979Z,24.00
2018-07-01T13:42:17.123Z,23.60
2018-07-01T13:44:45.220Z,23.90
2018-07-01T13:47:13.306Z,23.90
2018-07-01T13:52:09.301Z,23.90
2018-07-01T13:54:37.477Z,24.30
2018-07-01T13:57:05.587Z,24.00
2018-07-01T13:59:33.697Z,24.00
2018-07-01T14:02:01.842Z,24.10
2018-07-01T14:04:29.955Z,23.80
2018-07-01T14:06:58.061Z,24.00
2018-07-01T14:09:26.156Z,24.60
2018-07-01T14:11:54.290Z,23.70
2018-07-01T14:14:22.388Z,23.90
2018-07-01T14:16:50.500Z,23.70
2018-07-01T14:19:25.152Z,23.90
2018-07-01T14:21:53.269Z,23.90
2018-07-01T14:24:21.385Z,24.20
2018-07-01T14:26:49.541Z,23.20
2018-07-01T14:29:17.613Z,24.10
2018-07-01T14:34:13.609Z,24.40
2018-07-01T14:36:41.735Z,24.10
2018-07-01T14:39:11.596Z,24.30
2018-07-01T14:41:39.683Z,23.30
2018-07-01T14:44:07.779Z,23.40
2018-07-01T14:46:36.110Z,23.90
2018-07-01T14:49:04.272Z,23.50
2018-07-01T14:51:32.439Z,23.90
2018-07-01T14:54:00.537Z,23.70
2018-07-01T14:56:28.652Z,24.20
2018-07-01T14:58:56.851Z,24.60
2018-07-01T15:01:25.091Z,24.10
2018-07-01T15:03:53.175Z,25.00
2018-07-01T15:06:21.295Z,24.10
2018-07-01T15:08:49.387Z,24.40
2018-07-01T15:11:17.476Z,23.40
2018-07-01T15:13:45.568Z,23.70
2018-07-01T15:16:13.745Z,24.30
2018-07-01T15:18:42.150Z,24.40
2018-07-01T15:21:10.423Z,23.90
2018-07-01T15:23:38.508Z,24.60
2018-07-01T15:28:34.467Z,24.80
2018-07-01T15:31:02.581Z,24.80
2018-07-01T15:33:30.712Z,25.00
2018-07-01T15:35:58.814Z,24.70
2018-07-01T15:38:26.906Z,24.70
2018-07-01T15:40:54.996Z,25.00
2018-07-01T15:43:23.112Z,25.10
2018-07-01T15:45:51.230Z,24.80
2018-07-01T15:48:19.318Z,25.10
2018-07-01T15:50:47.433Z,25.40
2018-07-01T15:53:15.503Z,25.40
2018-07-01T15:55:43.596Z,25.20
2018-07-01T15:58:11.677Z,25.30
2018-07-01T16:00:39.792Z,24.80
2018-07-01T16:03:07.919Z,25.50
2018-07-01T16:05:36.027Z,25.90
2018-07-01T16:08:04.272Z,26.10
2018-07-01T16:10:32.386Z,25.80
2018-07-01T16:13:00.468Z,25.80
2018-07-01T16:15:28.587Z,26.10
2018-07-01T16:17:56.737Z,25.90
2018-07-01T16:20:24.816Z,26.30
2018-07-01T16:22:52.931Z,26.90
2018-07-01T16:27:59.783Z,26.30
2018-07-01T16:32:55.732Z,26.40
2018-07-01T16:35:23.844Z,27.10
2018-07-01T16:37:51.939Z,26.80
2018-07-01T16:40:20.050Z,27.50
2018-07-01T16:42:48.141Z,26.90
2018-07-01T16:45:16.224Z,27.10
2018-07-01T16:47:44.322Z,26.90
2018-07-01T16:50:12.413Z,27.50
2018-07-01T16:52:40.524Z,27.00
2018-07-01T16:55:08.613Z,27.20
2018-07-01T16:57:36.697Z,27.20
2018-07-01T17:00:05.783Z,27.30
2018-07-01T17:02:33.895Z,27.40
2018-07-01T17:05:01.984Z,27.40
2018-07-01T17:07:30.094Z,27.60
2018-07-01T17:09:58.316Z,27.80
2018-07-01T17:12:26.428Z,28.00
2018-07-01T17:14:54.531Z,28.20
2018-07-01T17:17:22.653Z,28.10
2018-07-01T17:19:50.767Z,28.30
2018-07-01T17:22:18.920Z,28.40
2018-07-01T17:24:46.972Z,28.40
2018-07-01T17:27:15.044Z,28.60
2018-07-01T17:32:16.572Z,28.50
2018-07-01T17:34:44.968Z,28.40
2018-07-01T17:39:41.312Z,28.60
2018-07-01T17:42:09.418Z,28.80
2018-07-01T17:44:37.536Z,28.60
2018-07-01T17:47:05.714Z,29.20
2018-07-01T17:49:33.927Z,28.70
2018-07-01T17:52:02.028Z,28.70
2018-07-01T17:54:30.132Z,28.90
2018-07-01T17:56:58.236Z,29.30
2018-07-01T17:59:26.329Z,29.10
2018-07-01T18:01:54.419Z,29.00
2018-07-01T18:04:22.574Z,29.00
2018-07-01T18:09:18.512Z,29.90
2018-07-01T18:11:46.636Z,29.30
2018-07-01T18:16:42.713Z,29.30
2018-07-01T18:21:44.903Z,29.40
2018-07-01T18:24:35.145Z,29.50
2018-07-01T18:26:34.978Z,30.20
2018-07-01T18:29:10.775Z,30.00
2018-07-01T18:31:31.162Z,29.90
2018-07-01T18:33:59.278Z,29.80
2018-07-01T18:36:27.371Z,30.00
2018-07-01T18:38:55.463Z,29.80
2018-07-01T18:41:23.556Z,30.00
2018-07-01T18:43:51.664Z,30.20
2018-07-01T18:46:19.752Z,30.40
2018-07-01T18:48:47.928Z,30.60
2018-07-01T18:53:44.178Z,31.60
2018-07-01T18:58:40.199Z,31.70
2018-07-01T19:01:08.308Z,32.20
2018-07-01T19:03:36.400Z,32.40
2018-07-01T19:06:04.616Z,32.90
2018-07-01T19:08:32.721Z,32.90
2018-07-01T19:11:00.832Z,33.00
2018-07-01T19:13:28.958Z,33.10
2018-07-01T19:15:57.056Z,33.00
2018-07-01T19:18:25.149Z,32.90
2018-07-01T19:20:53.265Z,33.10
2018-07-01T19:23:21.411Z,33.10
2018-07-01T19:25:49.472Z,33.20
2018-07-01T19:28:17.572Z,32.90
2018-07-01T19:30:45.735Z,33.00
2018-07-01T19:33:13.947Z,33.40
2018-07-01T19:38:10.030Z,33.80
2018-07-01T19:40:38.136Z,33.80
2018-07-01T19:43:06.377Z,33.80
2018-07-01T19:45:34.307Z,34.20
2018-07-01T19:48:02.418Z,34.00
2018-07-01T19:50:30.622Z,35.00
2018-07-01T19:52:58.730Z,34.40
2018-07-01T19:55:26.827Z,34.50
2018-07-01T19:57:54.992Z,34.20
2018-07-01T20:00:23.131Z,34.40
2018-07-01T20:02:51.207Z,34.00
2018-07-01T20:05:19.471Z,34.60
2018-07-01T20:07:47.573Z,34.10
2018-07-01T20:10:15.787Z,34.30
2018-07-01T20:12:43.967Z,34.70
2018-07-01T20:15:12.119Z,34.40
2018-07-01T20:17:40.251Z,34.20
2018-07-01T20:20:08.565Z,34.80
2018-07-01T20:22:37.019Z,34.50
2018-07-01T20:25:04.952Z,34.50
2018-07-01T20:27:33.031Z,34.60
2018-07-01T20:30:01.151Z,34.70
2018-07-01T20:32:29.283Z,34.60
2018-07-01T20:34:57.411Z,34.80
2018-07-01T20:37:25.747Z,34.50
2018-07-01T20:39:53.799Z,34.50
2018-07-01T20:42:21.877Z,34.70
2018-07-01T20:47:17.915Z,35.20
2018-07-01T20:49:46.120Z,34.80
2018-07-01T20:52:14.294Z,35.10
2018-07-01T20:54:42.382Z,35.00
2018-07-01T20:57:10.503Z,35.10
2018-07-01T20:59:38.731Z,35.40
2018-07-01T21:02:07.096Z,35.40
2018-07-01T21:04:35.199Z,35.20
2018-07-01T21:09:37.795Z,35.40
2018-07-01T21:12:06.025Z,35.60
2018-07-01T21:14:34.152Z,35.70
2018-07-01T21:17:02.271Z,35.60
2018-07-01T21:19:30.482Z,35.60
2018-07-01T21:21:58.556Z,35.90
2018-07-01T21:24:26.660Z,35.90
2018-07-01T21:26:54.760Z,35.90
2018-07-01T21:29:22.855Z,36.00
2018-07-01T21:31:50.961Z,36.10
2018-07-01T21:34:19.067Z,36.10
2018-07-01T21:39:15.076Z,36.30
2018-07-01T21:41:43.168Z,36.40
2018-07-01T21:46:39.281Z,36.60
2018-07-01T21:49:08.150Z,36.60
2018-07-01T21:51:36.236Z,36.60
2018-07-01T21:54:04.647Z,36.40
2018-07-01T21:56:32.951Z,36.80
2018-07-01T21:59:01.984Z,36.80
2018-07-01T22:01:30.065Z,36.80
2018-07-01T22:03:58.162Z,36.80
2018-07-01T22:06:30.515Z,37.00
2018-07-01T22:08:58.612Z,36.80
2018-07-01T22:11:38.324Z,36.90
2018-07-01T22:14:17.500Z,36.90
2018-07-01T22:16:45.936Z,37.10
2018-07-01T22:19:15.021Z,37.20
2018-07-01T22:21:43.120Z,37.30
2018-07-01T22:24:12.240Z,37.10
2018-07-01T22:26:40.736Z,37.40
2018-07-01T22:29:09.162Z,37.30
2018-07-01T22:31:37.243Z,37.40
2018-07-01T22:34:05.506Z,37.60
2018-07-01T22:36:33.840Z,37.80
2018-07-01T22:39:02.058Z,37.60
2018-07-01T22:41:30.160Z,37.70
2018-07-01T22:43:58.264Z,37.80
2018-07-01T22:46:26.391Z,38.10
2018-07-01T22:48:54.496Z,37.90
2018-07-01T22:51:22.607Z,37.80
2018-07-01T22:53:50.720Z,37.70
2018-07-01T22:56:18.830Z,38.00
2018-07-01T22:58:46.891Z,38.00
2018-07-01T23:01:15.000Z,38.00
2018-07-01T23:03:43.108Z,37.90
2018-07-01T23:06:11.319Z,38.10
2018-07-01T23:08:39.455Z,37.90
2018-07-01T23:11:07.542Z,38.10
2018-07-01T23:16:03.560Z,38.00
2018-07-01T23:18:31.666Z,38.30
2018-07-01T23:20:59.851Z,38.40
2018-07-01T23:23:27.947Z,38.30
2018-07-01T23:25:56.070Z,38.40
2018-07-01T23:28:24.160Z,38.30
2018-07-01T23:30:52.291Z,38.40
2018-07-01T23:33:20.414Z,38.60
2018-07-01T23:38:16.587Z,38.60
2018-07-01T23:40:44.681Z,38.90
2018-07-01T23:43:12.783Z,38.90
2018-07-01T23:45:40.906Z,38.70
2018-07-01T23:48:09.367Z,38.80
2018-07-01T23:50:37.480Z,38.80
2018-07-01T23:53:05.879Z,38.90
2018-07-01T23:55:33.992Z,39.10
2018-07-01T23:58:02.110Z,38.90
